Strona główna
METAR-TAF:

METAR-TAF

Lotnisko :

Bückeburg, Niemcy

Szerokość geograficzna: 52-17N, Długość geograficzna: 009-05E, wysokość: 70 m

Aktualna obserwacja pogody

Raport powstał 21 minut temu, godzina 18:20 UTC
Wiatr 4 kt od południowy zachód
Temperatura 20°C
Wilgotność 64%
Ciśnienie 1013 hPa
Widzialność 10 km lub więcej
Mało chmury na wysokości 4500 ft
Przerywane chmury na wysokości 5300 ft

METAR: ETHB 171820Z 22004KT 9999 FEW045 BKN053 20/13 Q1013 BLU

czas: 20:41 (18:41 UTC)

Prognoza

Raport powstał 2 godziny i 1 minut temu, godzina 16:40 UTC
Prognoza ważna od 17 godzina 14 UTC do 17 godzina 23 UTC
Wiatr 5 kt od północny zachód
Widzialność: 1700 m
Rozproszone chmury na wysokości 4000 ft

TAF: ETHB 171640Z 1714/1723 32005KT 9999 NSW SCT040 CANCEL 1700

Obserwacja i prognoza pogody dla ponad 4000 lotnisk (raport METAR i TAF).

Dostępne stacje oznaczono żółtymi i czerwonymi punktami na mapie.

Najedź kursorem aby zobaczyć nazwę stacji.

Kliknij aby zobaczyć obserwacje i prognozy pogody.

Aby zmienić mapę: kliknij na zielony przycisk z czarnym krzyżykiem, aby powiększyć; na zielony przycisk z myślnikiem, aby pomniejszyć; na zielone strzałki, aby przejść do map sąsiednich.


METAR-TAF: